Time;durP1;ratioP1;P1;durP2;ratioP2;P2;SDS_P1;SDS_P2;PMS_P1;PMS_P2;Temp;Humidity;BMP_temperature;BMP_pressure;BME280_temperature;BME280_humidity;BME280_pressure;Samples;Min_cycle;Max_cycle;Signal;HPM_P1;HPM_P2
2022/08/01 00:00:01;;;;;;;;;;;17.80;99.90;;;;;;4957990;28;19929;-91
2022/08/01 00:02:30;;;;;;;;;;;17.70;99.90;;;;;;4960540;28;19932;-89
2022/08/01 00:05:15;;;;;;;;;;;17.80;99.90;;;;;;4977600;28;19922;-89
2022/08/01 00:07:43;;;;;;;;;;;17.80;99.90;;;;;;4983229;28;19933;-86
2022/08/01 00:10:33;;;;;;;;;;;17.50;99.90;;;;;;4961152;28;19925;-89
2022/08/01 00:13:08;;;;;;;;;;;17.80;99.90;;;;;;4966401;28;20053;-92
2022/08/01 00:15:37;;;;;;;;;;;17.80;99.90;;;;;;4961394;28;19987;-87
2022/08/01 00:18:23;;;;;;;;;;;17.80;99.90;;;;;;4970603;28;19926;-90
2022/08/01 00:20:52;;;;;;;;;;;17.80;99.90;;;;;;4965942;28;19937;-86
2022/08/01 00:23:19;;;;;;;;;;;17.80;99.90;;;;;;4973904;28;20348;-86
2022/08/01 00:25:44;;;;;;;;;;;17.80;99.90;;;;;;5292193;23;20254;-83
2022/08/01 00:28:13;;;;;;;;;;;17.80;99.90;;;;;;4972830;28;20422;-83
2022/08/01 00:30:39;;;;;;;;;;;17.80;99.90;;;;;;4983441;28;19932;-86
2022/08/01 00:33:09;;;;;;;;;;;17.80;99.90;;;;;;4993803;28;20217;-85
2022/08/01 00:35:46;;;;;;;;;;;17.70;99.90;;;;;;4983274;28;19914;-87
2022/08/01 00:38:12;;;;;;;;;;;17.70;99.90;;;;;;4985686;28;19947;-83
2022/08/01 00:40:38;;;;;;;;;;;17.90;99.90;;;;;;4983796;28;19929;-85
2022/08/01 00:46:04;;;;;;;;;;;17.70;99.90;;;;;;4968069;28;19926;-83
2022/08/01 00:48:59;;;;;;;;;;;17.60;99.90;;;;;;4992398;28;19929;-81
2022/08/01 00:51:29;;;;;;;;;;;17.60;99.90;;;;;;4999741;28;19979;-84
2022/08/01 00:54:04;;;;;;;;;;;17.80;99.90;;;;;;4986181;28;19925;-85
2022/08/01 00:56:31;;;;;;;;;;;17.60;99.90;;;;;;4978572;28;19930;-84
2022/08/01 00:59:00;;;;;;;;;;;17.60;99.90;;;;;;4978007;28;20367;-85
2022/08/01 01:01:47;;;;;;;;;;;17.50;99.90;;;;;;4983559;28;19933;-86
2022/08/01 01:04:15;;;;;;;;;;;17.50;99.90;;;;;;5004595;28;19925;-82
2022/08/01 01:07:05;;;;;;;;;;;17.60;99.90;;;;;;4981824;28;20398;-88
2022/08/01 01:09:50;;;;;;;;;;;17.60;99.90;;;;;;5003461;28;19933;-80
2022/08/01 01:12:58;;;;;;;;;;;17.60;99.90;;;;;;4995049;28;19981;-91
2022/08/01 01:16:02;;;;;;;;;;;17.80;99.90;;;;;;4959361;28;19932;-84
2022/08/01 01:18:37;;;;;;;;;;;17.60;99.90;;;;;;4912638;29;19970;-82
2022/08/01 01:21:03;;;;;;;;;;;17.50;99.90;;;;;;4927668;29;20240;-84
2022/08/01 01:23:41;;;;;;;;;;;17.50;99.90;;;;;;4917631;29;19937;-84
2022/08/01 01:26:12;;;;;;;;;;;17.40;99.90;;;;;;4919037;29;19927;-83
2022/08/01 01:28:57;;;;;;;;;;;17.40;99.90;;;;;;4924437;29;20239;-83
2022/08/01 01:31:24;;;;;;;;;;;17.40;99.90;;;;;;4990101;28;19929;-82
2022/08/01 01:33:53;;;;;;;;;;;17.40;99.90;;;;;;4987470;28;19937;-83
2022/08/01 01:36:24;;;;;;;;;;;17.30;99.90;;;;;;4980406;28;20048;-84
2022/08/01 01:39:00;;;;;;;;;;;17.30;99.90;;;;;;4984173;28;19969;-82
2022/08/01 01:41:27;;;;;;;;;;;17.30;99.90;;;;;;4997582;28;19929;-83
2022/08/01 01:43:57;;;;;;;;;;;17.30;99.90;;;;;;4973900;28;19936;-85
2022/08/01 01:46:26;;;;;;;;;;;17.20;99.90;;;;;;4992882;28;19929;-84
2022/08/01 01:48:53;;;;;;;;;;;17.20;99.90;;;;;;4982246;28;19926;-84
2022/08/01 01:51:21;;;;;;;;;;;17.20;99.90;;;;;;4994047;28;19925;-84
2022/08/01 01:54:02;;;;;;;;;;;17.10;99.90;;;;;;5003775;28;19926;-84
2022/08/01 01:56:29;;;;;;;;;;;17.10;99.90;;;;;;4994144;28;19929;-82
2022/08/01 01:59:01;;;;;;;;;;;17.10;99.90;;;;;;4991716;28;19932;-84
2022/08/01 02:01:28;;;;;;;;;;;17.00;99.90;;;;;;4994004;28;19929;-85
2022/08/01 02:03:56;;;;;;;;;;;17.10;99.90;;;;;;4993611;28;19932;-83
2022/08/01 02:08:49;;;;;;;;;;;17.00;99.90;;;;;;5091118;23;19941;-82
2022/08/01 02:11:17;;;;;;;;;;;17.00;99.90;;;;;;4958124;23;20451;-83
2022/08/01 02:13:44;;;;;;;;;;;17.00;99.90;;;;;;4956428;28;19933;-83
2022/08/01 02:16:13;;;;;;;;;;;17.00;99.90;;;;;;4954516;28;19968;-83
2022/08/01 02:18:40;;;;;;;;;;;17.00;99.90;;;;;;4949032;28;20023;-82
2022/08/01 02:21:09;;;;;;;;;;;17.00;99.90;;;;;;4961881;28;19927;-82
2022/08/01 02:23:36;;;;;;;;;;;17.00;99.90;;;;;;4970342;28;19975;-82
2022/08/01 02:26:22;;;;;;;;;;;17.00;99.90;;;;;;4974065;28;19925;-82
2022/08/01 02:29:09;;;;;;;;;;;17.00;99.90;;;;;;4927388;29;20114;-80
2022/08/01 02:34:32;;;;;;;;;;;17.00;99.90;;;;;;5251556;23;19925;-80
2022/08/01 02:36:58;;;;;;;;;;;17.00;99.90;;;;;;4955233;28;19941;-83
2022/08/01 02:39:26;;;;;;;;;;;17.00;99.90;;;;;;4955208;28;19934;-83
2022/08/01 02:41:55;;;;;;;;;;;16.90;99.90;;;;;;4975636;28;20004;-84
2022/08/01 02:44:23;;;;;;;;;;;16.90;99.90;;;;;;4956097;28;19937;-85
2022/08/01 02:46:51;;;;;;;;;;;17.00;99.90;;;;;;4969006;28;19981;-82
2022/08/01 02:49:20;;;;;;;;;;;16.90;99.90;;;;;;4955180;28;19940;-84
2022/08/01 02:51:48;;;;;;;;;;;16.90;99.90;;;;;;4978655;28;19926;-84
2022/08/01 02:54:14;;;;;;;;;;;16.80;99.90;;;;;;4947412;28;20443;-83
2022/08/01 02:56:41;;;;;;;;;;;16.90;99.90;;;;;;4970194;28;20043;-83
2022/08/01 02:59:12;;;;;;;;;;;16.80;99.90;;;;;;4965430;28;19930;-86
2022/08/01 03:01:39;;;;;;;;;;;16.80;99.90;;;;;;4962714;28;19951;-86
2022/08/01 03:07:29;;;;;;;;;;;16.70;99.90;;;;;;4993763;28;20487;-84
2022/08/01 03:13:33;;;;;;;;;;;16.60;99.90;;;;;;4930984;29;20502;-81
2022/08/01 03:16:00;;;;;;;;;;;16.40;99.90;;;;;;4904868;28;19927;-81
2022/08/01 03:18:27;;;;;;;;;;;16.60;99.90;;;;;;4968807;28;20009;-86
2022/08/01 03:20:59;;;;;;;;;;;16.50;99.90;;;;;;4963079;28;19934;-85
2022/08/01 03:23:26;;;;;;;;;;;16.50;99.90;;;;;;4975232;28;19980;-84
2022/08/01 03:25:52;;;;;;;;;;;16.50;99.90;;;;;;4946261;28;20381;-81
2022/08/01 03:28:20;;;;;;;;;;;16.40;99.90;;;;;;4979323;28;19932;-84
2022/08/01 03:31:04;;;;;;;;;;;16.50;99.90;;;;;;4982854;28;19926;-85
2022/08/01 03:33:32;;;;;;;;;;;16.40;99.90;;;;;;4960008;28;20389;-83
2022/08/01 03:36:38;;;;;;;;;;;16.50;99.90;;;;;;4965871;28;19969;-84
2022/08/01 03:39:15;;;;;;;;;;;16.30;99.90;;;;;;4952825;28;19926;-84
2022/08/01 03:41:43;;;;;;;;;;;16.40;99.90;;;;;;4961287;28;20008;-84
2022/08/01 03:44:49;;;;;;;;;;;16.50;99.90;;;;;;4935889;28;19973;-84
2022/08/01 03:47:22;;;;;;;;;;;16.40;99.90;;;;;;4955245;28;20049;-84
2022/08/01 03:49:52;;;;;;;;;;;16.30;99.90;;;;;;4957335;28;19928;-85
2022/08/01 03:52:25;;;;;;;;;;;16.40;99.90;;;;;;4959844;28;19937;-83
2022/08/01 03:54:52;;;;;;;;;;;16.50;99.90;;;;;;4972365;23;19937;-83
2022/08/01 03:57:39;;;;;;;;;;;16.40;99.90;;;;;;4957786;28;19937;-84
2022/08/01 04:00:08;;;;;;;;;;;16.30;99.90;;;;;;5021327;23;19940;-84
2022/08/01 04:02:36;;;;;;;;;;;16.30;99.90;;;;;;4944495;28;19930;-85
2022/08/01 04:05:04;;;;;;;;;;;16.30;99.90;;;;;;4967919;28;20087;-86
2022/08/01 04:07:55;;;;;;;;;;;16.20;99.90;;;;;;4960071;28;20028;-85
2022/08/01 04:10:42;;;;;;;;;;;16.20;99.90;;;;;;4947236;28;19925;-85
2022/08/01 04:13:24;;;;;;;;;;;16.20;99.90;;;;;;4956821;28;20032;-82
2022/08/01 04:16:01;;;;;;;;;;;16.20;99.90;;;;;;4955659;28;20067;-86
2022/08/01 04:18:48;;;;;;;;;;;;;;;;;;;;;
2022/08/01 04:21:30;;;;;;;;;;;16.10;99.90;;;;;;4926830;28;19934;-84
2022/08/01 04:24:07;;;;;;;;;;;16.00;99.90;;;;;;4988746;28;20536;-83
2022/08/01 04:26:35;;;;;;;;;;;16.00;99.90;;;;;;4956091;28;19929;-84
2022/08/01 04:29:06;;;;;;;;;;;16.00;99.90;;;;;;4968709;28;19952;-83
2022/08/01 04:31:55;;;;;;;;;;;16.00;99.90;;;;;;4965839;28;19937;-82
2022/08/01 04:34:25;;;;;;;;;;;16.10;99.90;;;;;;4959279;28;19933;-84
2022/08/01 04:36:59;;;;;;;;;;;16.00;99.90;;;;;;4971996;28;19972;-82
2022/08/01 04:39:28;;;;;;;;;;;16.00;99.90;;;;;;4987509;28;19949;-85
2022/08/01 04:41:56;;;;;;;;;;;16.00;99.90;;;;;;4972737;28;19961;-83
2022/08/01 04:44:22;;;;;;;;;;;16.10;99.90;;;;;;4970947;28;19925;-84
2022/08/01 04:46:49;;;;;;;;;;;16.10;99.90;;;;;;4954089;28;19930;-83
2022/08/01 04:49:16;;;;;;;;;;;16.10;99.90;;;;;;4957930;28;19933;-82
2022/08/01 04:52:00;;;;;;;;;;;16.10;99.90;;;;;;4971673;28;20418;-83
2022/08/01 04:54:27;;;;;;;;;;;16.00;99.90;;;;;;4957720;28;19933;-83
2022/08/01 04:57:01;;;;;;;;;;;16.10;99.90;;;;;;4952018;28;19926;-82
2022/08/01 04:59:40;;;;;;;;;;;16.20;99.90;;;;;;4951583;28;19930;-83
2022/08/01 05:02:16;;;;;;;;;;;16.10;99.90;;;;;;4956476;28;19996;-84
2022/08/01 05:04:42;;;;;;;;;;;16.10;99.90;;;;;;4977712;28;19929;-85
2022/08/01 05:07:08;;;;;;;;;;;16.10;99.90;;;;;;4962484;28;19929;-83
2022/08/01 05:09:41;;;;;;;;;;;16.10;99.90;;;;;;4977567;28;19925;-83
2022/08/01 05:12:10;;;;;;;;;;;16.10;99.90;;;;;;4956040;28;19972;-82
2022/08/01 05:14:36;;;;;;;;;;;16.10;99.90;;;;;;4937961;28;19926;-82
2022/08/01 05:17:04;;;;;;;;;;;16.10;99.90;;;;;;4938462;28;19925;-83
2022/08/01 05:19:31;;;;;;;;;;;16.10;99.90;;;;;;4959109;28;19941;-83
2022/08/01 05:22:00;;;;;;;;;;;16.10;99.90;;;;;;4971702;28;19930;-83
2022/08/01 05:24:46;;;;;;;;;;;16.10;99.90;;;;;;4972028;28;19930;-83
2022/08/01 05:27:12;;;;;;;;;;;16.10;99.90;;;;;;4938216;28;20352;-82
2022/08/01 05:29:43;;;;;;;;;;;16.10;99.90;;;;;;4970591;28;19984;-84
2022/08/01 05:32:09;;;;;;;;;;;16.10;99.90;;;;;;4956221;28;19977;-83
2022/08/01 05:34:35;;;;;;;;;;;16.10;99.90;;;;;;4956691;28;20012;-83
2022/08/01 05:37:08;;;;;;;;;;;16.00;99.90;;;;;;4993077;28;19929;-82
2022/08/01 05:39:34;;;;;;;;;;;16.10;99.90;;;;;;4939524;28;19965;-82
2022/08/01 05:42:00;;;;;;;;;;;16.10;99.90;;;;;;4982256;28;19976;-82
2022/08/01 05:44:41;;;;;;;;;;;16.00;99.90;;;;;;4979435;28;20340;-82
2022/08/01 05:47:08;;;;;;;;;;;16.10;99.90;;;;;;4964807;28;19926;-83
2022/08/01 05:52:22;;;;;;;;;;;16.10;99.90;;;;;;4969052;28;20423;-82
2022/08/01 05:54:48;;;;;;;;;;;16.10;99.90;;;;;;4953555;28;19926;-83
2022/08/01 05:57:13;;;;;;;;;;;16.10;99.90;;;;;;4935241;28;19937;-83
2022/08/01 06:00:07;;;;;;;;;;;16.10;99.90;;;;;;4933310;28;20052;-82
2022/08/01 06:02:33;;;;;;;;;;;16.20;99.90;;;;;;4934841;28;20016;-83
2022/08/01 06:05:09;;;;;;;;;;;16.20;99.90;;;;;;4951057;28;19934;-82
2022/08/01 06:07:35;;;;;;;;;;;16.20;99.90;;;;;;4952714;28;20284;-84
2022/08/01 06:10:03;;;;;;;;;;;16.20;99.90;;;;;;4933924;28;19930;-84
2022/08/01 06:12:28;;;;;;;;;;;16.20;99.90;;;;;;4951094;28;19938;-83
2022/08/01 06:15:14;;;;;;;;;;;16.20;99.90;;;;;;4914146;28;19978;-83
2022/08/01 06:17:41;;;;;;;;;;;16.30;99.90;;;;;;4934964;28;19973;-83
2022/08/01 06:20:16;;;;;;;;;;;16.30;99.90;;;;;;4956028;28;19934;-83
2022/08/01 06:22:43;;;;;;;;;;;16.30;99.90;;;;;;4950619;28;19936;-82
2022/08/01 06:25:09;;;;;;;;;;;16.30;99.90;;;;;;4918189;28;20021;-84
2022/08/01 06:27:35;;;;;;;;;;;16.30;99.90;;;;;;4934904;28;19927;-82
2022/08/01 06:30:11;;;;;;;;;;;;;;;;;;;;;
2022/08/01 06:32:38;;;;;;;;;;;16.30;99.90;;;;;;4939334;28;19930;-85
2022/08/01 06:35:04;;;;;;;;;;;16.40;99.90;;;;;;4955035;28;19930;-80
2022/08/01 06:37:30;;;;;;;;;;;16.30;99.90;;;;;;4938365;28;19926;-83
2022/08/01 06:40:15;;;;;;;;;;;16.30;99.90;;;;;;4956846;28;20009;-81
2022/08/01 06:42:41;;;;;;;;;;;16.30;99.90;;;;;;4948302;28;20424;-84
2022/08/01 06:45:10;;;;;;;;;;;16.30;99.90;;;;;;4944892;28;19941;-82
2022/08/01 06:47:36;;;;;;;;;;;16.30;99.90;;;;;;4964502;28;19930;-81
2022/08/01 06:50:03;;;;;;;;;;;16.30;99.90;;;;;;4945641;28;19926;-83
2022/08/01 06:52:28;;;;;;;;;;;16.30;99.90;;;;;;4904609;23;1942580;-83
2022/08/01 06:54:59;;;;;;;;;;;16.30;99.90;;;;;;4955953;28;19930;-82
2022/08/01 06:57:25;;;;;;;;;;;16.40;99.90;;;;;;4953142;28;19937;-82
2022/08/01 06:59:51;;;;;;;;;;;16.40;99.90;;;;;;4932184;28;20017;-81
2022/08/01 07:02:18;;;;;;;;;;;16.40;99.90;;;;;;4949352;28;19926;-82
2022/08/01 07:04:43;;;;;;;;;;;16.40;99.90;;;;;;4938772;28;19930;-82
2022/08/01 07:07:09;;;;;;;;;;;16.40;99.90;;;;;;4975399;28;19993;-82
2022/08/01 07:09:36;;;;;;;;;;;16.50;99.90;;;;;;4938953;28;20055;-83
2022/08/01 07:12:03;;;;;;;;;;;16.50;99.90;;;;;;4942317;28;20445;-85
2022/08/01 07:14:30;;;;;;;;;;;16.60;99.90;;;;;;4921818;28;20380;-83
2022/08/01 07:16:57;;;;;;;;;;;16.60;99.90;;;;;;4970735;28;19941;-84
2022/08/01 07:19:25;;;;;;;;;;;16.70;99.90;;;;;;4938031;28;19934;-83
2022/08/01 07:21:51;;;;;;;;;;;16.80;99.90;;;;;;4937803;28;20308;-83
2022/08/01 07:24:17;;;;;;;;;;;17.00;99.90;;;;;;4956461;28;19925;-81
2022/08/01 07:26:45;;;;;;;;;;;17.20;99.90;;;;;;4933395;28;19934;-82
2022/08/01 07:29:11;;;;;;;;;;;17.20;99.90;;;;;;4937096;28;19926;-84
2022/08/01 07:31:37;;;;;;;;;;;17.20;99.90;;;;;;4954841;28;20585;-84
2022/08/01 07:34:03;;;;;;;;;;;17.20;99.90;;;;;;4945433;28;19933;-83
2022/08/01 07:36:28;;;;;;;;;;;17.40;99.90;;;;;;4947122;28;19945;-83
2022/08/01 07:38:55;;;;;;;;;;;17.60;99.90;;;;;;4923251;28;19956;-86
2022/08/01 07:41:20;;;;;;;;;;;17.90;99.90;;;;;;4933450;28;19936;-80
2022/08/01 07:43:48;;;;;;;;;;;18.70;99.90;;;;;;4955974;28;20409;-82
2022/08/01 07:46:15;;;;;;;;;;;19.40;99.90;;;;;;4936826;28;20029;-84
2022/08/01 07:48:41;;;;;;;;;;;19.80;99.90;;;;;;4970322;28;20491;-86
2022/08/01 07:51:08;;;;;;;;;;;20.00;99.90;;;;;;4944549;28;19926;-88
2022/08/01 07:53:35;;;;;;;;;;;20.40;99.90;;;;;;4970923;28;19930;-87
2022/08/01 07:56:02;;;;;;;;;;;21.20;99.90;;;;;;4938333;28;19973;-83
2022/08/01 07:58:28;;;;;;;;;;;21.90;99.90;;;;;;4935455;28;20032;-86
2022/08/01 08:00:57;;;;;;;;;;;22.10;99.90;;;;;;4951016;28;20332;-81
2022/08/01 08:03:22;;;;;;;;;;;21.90;99.90;;;;;;4935334;28;20009;-82
2022/08/01 08:05:49;;;;;;;;;;;21.60;99.90;;;;;;4954894;28;19931;-83
2022/08/01 08:08:16;;;;;;;;;;;21.30;99.90;;;;;;4945764;28;20328;-82
2022/08/01 08:10:42;;;;;;;;;;;20.50;99.90;;;;;;4921188;28;20060;-84
2022/08/01 08:13:08;;;;;;;;;;;19.80;99.90;;;;;;4922126;28;19972;-83
2022/08/01 08:15:34;;;;;;;;;;;19.50;99.90;;;;;;4935420;28;20016;-82
2022/08/01 08:18:02;;;;;;;;;;;19.90;99.90;;;;;;4924753;28;19984;-84
2022/08/01 08:20:29;;;;;;;;;;;20.50;99.90;;;;;;4938280;28;20266;-83
2022/08/01 08:22:55;;;;;;;;;;;21.00;99.90;;;;;;4937722;29;19926;-85
2022/08/01 08:25:21;;;;;;;;;;;21.30;99.90;;;;;;4921949;28;19926;-81
2022/08/01 08:27:48;;;;;;;;;;;21.30;99.90;;;;;;4939081;28;19937;-83
2022/08/01 08:30:19;;;;;;;;;;;21.20;99.90;;;;;;4947776;28;20020;-79
2022/08/01 08:32:53;;;;;;;;;;;21.00;99.90;;;;;;4970595;28;20380;-81
2022/08/01 08:35:21;;;;;;;;;;;21.10;99.90;;;;;;4948403;28;19926;-80
2022/08/01 08:37:59;;;;;;;;;;;21.50;99.90;;;;;;4950527;28;19969;-84
2022/08/01 08:40:44;;;;;;;;;;;21.70;99.90;;;;;;4952776;28;19926;-81
2022/08/01 08:43:10;;;;;;;;;;;21.80;99.90;;;;;;4936657;28;19966;-83
2022/08/01 08:45:36;;;;;;;;;;;21.90;99.90;;;;;;4951816;28;20019;-86
2022/08/01 08:48:05;;;;;;;;;;;21.90;99.90;;;;;;4973622;28;19930;-80
2022/08/01 08:50:33;;;;;;;;;;;22.40;99.90;;;;;;4963717;28;19969;-82
2022/08/01 08:53:01;;;;;;;;;;;22.30;99.90;;;;;;4956314;28;20244;-81
2022/08/01 08:55:27;;;;;;;;;;;22.50;99.90;;;;;;4938725;29;19941;-82
2022/08/01 08:57:54;;;;;;;;;;;22.10;99.90;;;;;;4917024;29;19934;-80
2022/08/01 09:00:21;;;;;;;;;;;21.50;99.90;;;;;;4966397;28;19953;-82
2022/08/01 09:02:49;;;;;;;;;;;21.40;99.90;;;;;;4936189;28;19922;-82
2022/08/01 09:05:31;;;;;;;;;;;21.50;99.90;;;;;;4937343;28;20430;-82
2022/08/01 09:07:57;;;;;;;;;;;21.30;99.90;;;;;;4973061;28;20004;-80
2022/08/01 09:10:28;;;;;;;;;;;20.60;99.90;;;;;;4939074;28;19930;-83
2022/08/01 09:13:13;;;;;;;;;;;20.10;99.90;;;;;;4921696;28;19933;-79
2022/08/01 09:16:07;;;;;;;;;;;20.10;99.90;;;;;;4963491;28;20522;-82
2022/08/01 09:18:40;;;;;;;;;;;20.00;99.90;;;;;;4948567;28;20319;-81
2022/08/01 09:21:07;;;;;;;;;;;19.90;99.90;;;;;;4930664;28;19926;-79
2022/08/01 09:23:56;;;;;;;;;;;19.60;99.90;;;;;;4934344;28;19989;-80
2022/08/01 09:26:35;;;;;;;;;;;19.20;99.90;;;;;;4952079;28;20400;-82
2022/08/01 09:29:05;;;;;;;;;;;19.30;99.90;;;;;;4965901;28;19937;-86
2022/08/01 09:31:42;;;;;;;;;;;19.50;99.90;;;;;;4935629;28;20266;-81
2022/08/01 09:34:12;;;;;;;;;;;19.50;99.90;;;;;;4977264;28;19930;-79
2022/08/01 09:36:58;;;;;;;;;;;19.30;99.90;;;;;;4936204;28;19930;-82
2022/08/01 09:39:43;;;;;;;;;;;19.40;99.90;;;;;;4941618;28;19934;-83
2022/08/01 09:42:24;;;;;;;;;;;19.50;99.90;;;;;;4954368;28;19970;-82
2022/08/01 09:44:53;;;;;;;;;;;19.60;99.90;;;;;;4950622;28;19949;-82
2022/08/01 09:47:23;;;;;;;;;;;19.40;99.90;;;;;;4944970;28;19930;-83
2022/08/01 09:50:04;;;;;;;;;;;19.50;99.90;;;;;;4941058;28;20396;-81
2022/08/01 09:52:30;;;;;;;;;;;19.50;99.90;;;;;;4942511;28;20562;-82
2022/08/01 09:55:12;;;;;;;;;;;19.70;99.90;;;;;;4943551;28;20306;-82
2022/08/01 09:57:38;;;;;;;;;;;19.50;99.90;;;;;;4975237;28;19922;-83
2022/08/01 10:00:35;;;;;;;;;;;19.50;99.90;;;;;;4965931;28;20253;-82
2022/08/01 10:03:20;;;;;;;;;;;19.40;99.90;;;;;;4946718;28;20396;-85
2022/08/01 10:06:18;;;;;;;;;;;19.70;99.90;;;;;;4941424;28;19934;-84
2022/08/01 10:08:50;;;;;;;;;;;19.90;99.90;;;;;;4970000;28;19957;-83
2022/08/01 10:11:17;;;;;;;;;;;19.80;99.90;;;;;;4974836;28;20012;-82
2022/08/01 10:13:43;;;;;;;;;;;19.80;99.90;;;;;;4977735;28;19934;-79
2022/08/01 10:16:12;;;;;;;;;;;19.50;99.90;;;;;;4939529;28;19952;-82
2022/08/01 10:18:40;;;;;;;;;;;19.40;99.90;;;;;;4957835;28;20343;-80
2022/08/01 10:21:12;;;;;;;;;;;19.90;99.90;;;;;;4944206;28;19933;-84
2022/08/01 10:23:48;;;;;;;;;;;19.90;99.90;;;;;;4953012;28;19934;-80
2022/08/01 10:26:14;;;;;;;;;;;19.80;99.90;;;;;;4948887;28;19977;-82
2022/08/01 10:28:49;;;;;;;;;;;19.90;99.90;;;;;;4951161;28;19929;-84
2022/08/01 10:31:21;;;;;;;;;;;20.10;99.90;;;;;;4954118;28;20278;-81
2022/08/01 10:33:49;;;;;;;;;;;20.30;99.90;;;;;;4976402;28;20461;-81
2022/08/01 10:36:22;;;;;;;;;;;20.40;99.90;;;;;;4972264;28;19930;-80
2022/08/01 10:38:49;;;;;;;;;;;20.50;99.90;;;;;;4952206;28;20008;-84
2022/08/01 10:41:15;;;;;;;;;;;20.60;99.90;;;;;;4954167;28;19993;-85
2022/08/01 10:43:41;;;;;;;;;;;20.80;99.90;;;;;;4968558;28;19956;-81
2022/08/01 10:46:12;;;;;;;;;;;20.70;99.90;;;;;;4937549;28;19930;-81
2022/08/01 10:48:57;;;;;;;;;;;20.50;99.90;;;;;;4965493;28;20631;-82
2022/08/01 10:51:23;;;;;;;;;;;20.60;99.90;;;;;;4954749;28;19926;-83
2022/08/01 10:53:53;;;;;;;;;;;20.80;99.90;;;;;;4938553;28;20017;-80
2022/08/01 10:56:20;;;;;;;;;;;20.60;99.90;;;;;;4953853;28;19934;-82
2022/08/01 10:58:50;;;;;;;;;;;20.50;99.90;;;;;;4953623;28;20017;-81
2022/08/01 11:01:29;;;;;;;;;;;20.30;99.90;;;;;;4938798;28;19926;-83
2022/08/01 11:04:00;;;;;;;;;;;20.40;99.90;;;;;;4949624;28;19929;-82
2022/08/01 11:06:35;;;;;;;;;;;20.50;99.90;;;;;;4939269;28;20377;-83
2022/08/01 11:09:03;;;;;;;;;;;20.70;99.90;;;;;;4954791;28;19932;-82
2022/08/01 11:11:29;;;;;;;;;;;20.70;99.90;;;;;;4953907;28;20106;-82
2022/08/01 11:14:11;;;;;;;;;;;20.60;99.90;;;;;;4938473;28;19969;-83
2022/08/01 11:16:38;;;;;;;;;;;20.50;99.90;;;;;;4973876;28;19949;-81
2022/08/01 11:19:06;;;;;;;;;;;20.50;99.90;;;;;;4956776;28;19981;-81
2022/08/01 11:22:07;;;;;;;;;;;20.50;99.90;;;;;;4967167;28;19946;-83
2022/08/01 11:25:08;;;;;;;;;;;20.60;99.90;;;;;;4895579;28;19922;-82
2022/08/01 11:27:34;;;;;;;;;;;20.60;99.90;;;;;;4882960;29;19943;-87
2022/08/01 11:30:13;;;;;;;;;;;20.60;99.90;;;;;;4920606;28;19922;-79
2022/08/01 11:32:45;;;;;;;;;;;20.60;99.90;;;;;;4976605;28;19930;-85
2022/08/01 11:35:11;;;;;;;;;;;20.60;99.90;;;;;;4942449;28;19922;-83
2022/08/01 11:37:47;;;;;;;;;;;20.40;99.90;;;;;;4975618;28;20052;-83
2022/08/01 11:40:24;;;;;;;;;;;20.30;99.90;;;;;;4956302;28;19960;-82
2022/08/01 11:43:09;;;;;;;;;;;20.20;99.90;;;;;;4976972;28;19925;-80
2022/08/01 11:45:55;;;;;;;;;;;20.20;99.90;;;;;;4932648;28;20332;-84
2022/08/01 11:48:42;;;;;;;;;;;20.30;99.90;;;;;;4974273;28;19972;-80
2022/08/01 11:51:15;;;;;;;;;;;20.30;99.90;;;;;;4931093;28;19934;-82
2022/08/01 11:53:47;;;;;;;;;;;20.20;99.90;;;;;;4943960;28;19925;-81
2022/08/01 11:56:13;;;;;;;;;;;19.90;99.90;;;;;;4944299;28;19930;-82
2022/08/01 11:58:40;;;;;;;;;;;19.80;99.90;;;;;;4936490;28;19937;-84
2022/08/01 12:01:06;;;;;;;;;;;19.80;99.90;;;;;;4951092;28;19954;-82
2022/08/01 12:03:36;;;;;;;;;;;20.00;99.90;;;;;;4977525;28;20044;-83
2022/08/01 12:06:03;;;;;;;;;;;19.90;99.90;;;;;;4963434;28;20409;-80
2022/08/01 12:08:33;;;;;;;;;;;19.60;99.90;;;;;;4925634;28;19931;-83
2022/08/01 12:11:00;;;;;;;;;;;19.50;99.90;;;;;;4945103;28;20061;-83
2022/08/01 12:13:26;;;;;;;;;;;19.60;99.90;;;;;;4956876;28;19930;-83
2022/08/01 12:15:53;;;;;;;;;;;19.70;99.90;;;;;;4939126;28;20368;-82
2022/08/01 12:18:19;;;;;;;;;;;19.70;99.90;;;;;;4969231;28;20060;-83
2022/08/01 12:20:46;;;;;;;;;;;19.60;99.90;;;;;;4971675;28;19970;-85
2022/08/01 12:23:13;;;;;;;;;;;19.70;99.90;;;;;;4932376;28;20434;-85
2022/08/01 12:25:39;;;;;;;;;;;19.80;99.90;;;;;;4943323;28;20565;-82
2022/08/01 12:28:07;;;;;;;;;;;19.80;99.90;;;;;;4966138;28;20427;-81
2022/08/01 12:30:36;;;;;;;;;;;19.70;99.90;;;;;;4936956;28;19933;-84
2022/08/01 12:33:09;;;;;;;;;;;19.70;99.90;;;;;;4959135;28;19937;-80
2022/08/01 12:35:36;;;;;;;;;;;19.70;99.90;;;;;;4919177;28;19965;-81
2022/08/01 12:38:04;;;;;;;;;;;19.60;99.90;;;;;;4951384;28;20000;-82
2022/08/01 12:40:31;;;;;;;;;;;19.60;99.90;;;;;;4969760;28;20292;-81
2022/08/01 12:42:58;;;;;;;;;;;19.60;99.90;;;;;;4969558;28;19937;-82
2022/08/01 12:45:44;;;;;;;;;;;19.60;99.90;;;;;;4937576;28;19934;-83
2022/08/01 12:48:13;;;;;;;;;;;19.70;99.90;;;;;;4952934;28;19922;-82
2022/08/01 12:50:52;;;;;;;;;;;19.70;99.90;;;;;;4952153;28;20016;-84
2022/08/01 12:53:24;;;;;;;;;;;19.70;99.90;;;;;;4936089;29;19949;-83
2022/08/01 12:55:59;;;;;;;;;;;19.60;99.90;;;;;;4940165;28;19937;-84
2022/08/01 12:58:33;;;;;;;;;;;19.40;99.90;;;;;;4923067;28;20360;-81
2022/08/01 13:01:03;;;;;;;;;;;19.40;99.90;;;;;;4917911;28;19930;-81
2022/08/01 13:03:29;;;;;;;;;;;19.40;99.90;;;;;;4937112;28;20446;-84
2022/08/01 13:05:56;;;;;;;;;;;19.40;99.90;;;;;;4930300;28;19926;-81
2022/08/01 13:08:24;;;;;;;;;;;19.40;99.90;;;;;;4942894;28;20002;-82
2022/08/01 13:10:50;;;;;;;;;;;19.30;99.90;;;;;;4945532;28;19937;-84
2022/08/01 13:13:17;;;;;;;;;;;19.30;99.90;;;;;;4967868;28;20324;-83
2022/08/01 13:15:44;;;;;;;;;;;19.30;99.90;;;;;;4967642;28;20443;-83
2022/08/01 13:18:48;;;;;;;;;;;19.30;99.90;;;;;;4962362;28;19944;-83
2022/08/01 13:21:15;;;;;;;;;;;19.30;99.90;;;;;;4937300;28;19930;-83
2022/08/01 13:24:07;;;;;;;;;;;19.30;99.90;;;;;;4948591;28;19996;-85
2022/08/01 13:26:58;;;;;;;;;;;19.40;99.90;;;;;;4932185;28;19926;-83
2022/08/01 13:29:32;;;;;;;;;;;19.40;99.90;;;;;;4934838;28;20365;-82
2022/08/01 13:31:58;;;;;;;;;;;19.40;99.90;;;;;;4934532;28;19930;-82
2022/08/01 13:34:34;;;;;;;;;;;19.30;99.90;;;;;;4970344;28;19937;-82
2022/08/01 13:37:03;;;;;;;;;;;19.30;99.90;;;;;;4933349;28;20705;-81
2022/08/01 13:39:41;;;;;;;;;;;19.20;99.90;;;;;;4949673;28;19985;-82
2022/08/01 13:42:08;;;;;;;;;;;19.30;99.90;;;;;;4965420;28;19940;-82
2022/08/01 13:44:37;;;;;;;;;;;19.30;99.90;;;;;;4934452;28;20053;-83
2022/08/01 13:47:07;;;;;;;;;;;19.20;99.90;;;;;;4940420;28;19926;-82
2022/08/01 13:50:02;;;;;;;;;;;19.30;99.90;;;;;;4951880;28;20079;-82
2022/08/01 13:53:04;;;;;;;;;;;19.10;99.90;;;;;;4954967;28;19972;-81
2022/08/01 13:55:56;;;;;;;;;;;19.00;99.90;;;;;;4964878;28;19933;-82
2022/08/01 13:58:22;;;;;;;;;;;19.10;99.90;;;;;;4947156;28;19927;-84
2022/08/01 14:00:55;;;;;;;;;;;19.10;99.90;;;;;;4933118;28;19965;-83
2022/08/01 14:03:46;;;;;;;;;;;19.00;99.90;;;;;;4973503;28;19972;-83
2022/08/01 14:06:13;;;;;;;;;;;19.00;99.90;;;;;;4971925;28;19926;-82
2022/08/01 14:08:39;;;;;;;;;;;19.00;99.90;;;;;;4929779;28;19933;-81
2022/08/01 14:11:06;;;;;;;;;;;19.00;99.90;;;;;;4924851;28;19934;-83
2022/08/01 14:13:38;;;;;;;;;;;19.00;99.90;;;;;;4949885;28;19973;-81
2022/08/01 14:16:04;;;;;;;;;;;19.10;99.90;;;;;;4943377;28;20021;-86
2022/08/01 14:18:33;;;;;;;;;;;19.00;99.90;;;;;;4959234;28;20718;-83
2022/08/01 14:20:59;;;;;;;;;;;19.00;99.90;;;;;;4947443;28;20004;-84
2022/08/01 14:23:25;;;;;;;;;;;18.60;99.90;;;;;;4917568;29;20447;-82
2022/08/01 14:25:51;;;;;;;;;;;18.90;99.90;;;;;;4946055;28;19922;-81
2022/08/01 14:28:20;;;;;;;;;;;18.90;99.90;;;;;;4955950;28;19965;-82
2022/08/01 14:30:55;;;;;;;;;;;18.80;99.90;;;;;;4934655;28;19934;-82
2022/08/01 14:33:21;;;;;;;;;;;18.80;99.90;;;;;;4944680;28;20016;-81
2022/08/01 14:35:49;;;;;;;;;;;18.80;99.90;;;;;;4975561;28;20013;-83
2022/08/01 14:38:18;;;;;;;;;;;18.80;99.90;;;;;;4976138;28;20012;-83
2022/08/01 14:40:46;;;;;;;;;;;18.80;99.90;;;;;;4967409;28;20531;-82
2022/08/01 14:43:13;;;;;;;;;;;18.70;99.90;;;;;;4953241;28;20059;-82
2022/08/01 14:45:57;;;;;;;;;;;18.70;99.90;;;;;;4948194;28;19926;-80
2022/08/01 14:48:23;;;;;;;;;;;18.70;99.90;;;;;;4953032;28;20185;-81
2022/08/01 14:51:00;;;;;;;;;;;18.70;99.90;;;;;;4944118;28;19977;-82
2022/08/01 14:53:28;;;;;;;;;;;18.80;99.90;;;;;;4919361;29;19927;-84
2022/08/01 14:55:54;;;;;;;;;;;19.20;99.90;;;;;;4906255;29;19926;-82
2022/08/01 14:58:20;;;;;;;;;;;18.70;99.90;;;;;;4929891;29;19926;-82
2022/08/01 15:00:55;;;;;;;;;;;18.80;99.90;;;;;;4922769;28;19934;-81
2022/08/01 15:03:21;;;;;;;;;;;18.80;99.90;;;;;;4918204;29;20337;-84